Flag for France

Past Weather in 41°23'19.7"N, 9°09'22.8"E, France — Yesterday and Last 2 Weeks

Currently: 68 °F. Passing clouds. (Weather station: Ajaccio Airport, France). See more current weather

Past Weather in 41°23'19.7"N, 9°09'22.8"E — Graph

°F

41°23'19.7"N, 9°09'22.8"E Temperature Yesterday

Maximum temperature yesterday: 77 °F (at 6:00 pm)
Minimum temperature yesterday: 54 °F (at 5:00 am)
Average temperature yesterday: 67 °F

High & Low Weather Summary for the Past Weeks

 TemperatureHumidityPressure
High79 °F (May 14, 4:00 pm)100% (May 21, 6:00 am)30.09 "Hg (May 21, 6:00 am)
Low52 °F (May 18, 5:00 am)36% (May 25, 7:30 pm)29.68 "Hg (May 15, 6:00 am)
Average66 °F71%29.91 "Hg
* Reported May 10 9:00 pm — May 25 9:00 pm, 41°23'19.7"N, 9°09'22.8"E. Weather by CustomWeather, © 2024

Note: Actual official high and low records may vary slightly from our data, if they occured in-between our weather recording intervals... More about our weather records

41°23'19.7"N, 9°09'22.8"E Weather History for the Previous 24 Hours

Scroll right to see more
 ConditionsComfort  
Time TempWeatherWind HumidityBarometerVisibility
9:00 pm
Sat, May 25
68 °FPassing clouds.8 mph56%30.04 "HgN/A
8:30 pm70 °FSunny.7 mph50%30.04 "Hg10 mi
8:00 pm73 °FSunny.7 mph41%30.04 "Hg10 mi
7:30 pm75 °FSunny.8 mph36%30.01 "Hg10 mi
7:00 pm75 °FPassing clouds.5 mph41%30.01 "HgN/A
6:30 pm75 °FSunny.8 mph50%30.01 "Hg10 mi
6:00 pm75 °FSunny.9 mph54%30.01 "Hg10 mi
5:30 pm73 °FSunny.12 mph57%30.01 "Hg10 mi
5:00 pm73 °FClear.12 mph57%30.04 "HgN/A
4:30 pm75 °FMild.14 mph54%30.04 "HgN/A
4:00 pm75 °FMild.13 mph57%30.04 "HgN/A
3:00 pm75 °FMild.15 mph54%30.04 "HgN/A
2:30 pm75 °FPassing clouds.13 mph61%30.04 "HgN/A
2:00 pm75 °FPassing clouds.13 mph65%30.04 "HgN/A
1:30 pm75 °FMild.12 mph69%30.04 "HgN/A
1:00 pm75 °FMild.12 mph65%30.04 "HgN/A
12:30 pm75 °FMild.12 mph65%30.04 "HgN/A
12:00 pm73 °FSunny.12 mph69%30.04 "Hg10 mi
11:30 am73 °FSunny.12 mph65%30.04 "Hg10 mi
11:00 am72 °FPassing clouds.10 mph69%30.04 "HgN/A
10:30 am72 °FSunny.7 mph69%30.04 "Hg10 mi
10:00 am72 °FPassing clouds.6 mph69%30.04 "HgN/A
9:30 am70 °FMostly cloudy.6 mph73%30.04 "HgN/A
9:00 am70 °FPartly sunny.7 mph78%30.04 "HgN/A
8:30 am70 °FPassing clouds.9 mph78%30.01 "HgN/A
8:00 am66 °FSunny.9 mph68%30.01 "Hg10 mi
7:30 am61 °FPassing clouds.5 mph68%30.01 "HgN/A
7:00 am59 °FPassing clouds.3 mph68%29.98 "HgN/A
6:30 am57 °FPassing clouds.6 mph72%29.98 "HgN/A
6:00 am57 °FSunny.9 mph72%29.98 "Hg10 mi
5:30 am55 °FClear.9 mph77%29.98 "Hg10 mi
5:00 am55 °FClear.9 mph77%30.01 "Hg10 mi
4:30 am57 °FPassing clouds.6 mph72%30.01 "HgN/A
4:00 am57 °FPassing clouds.6 mph72%30.01 "HgN/A
3:30 am57 °FClear.3 mph72%30.01 "Hg10 mi
3:00 am57 °FPassing clouds.5 mph72%30.01 "HgN/A
2:30 am59 °FClear.6 mph68%30.01 "Hg10 mi
2:00 am59 °FPassing clouds.7 mph72%30.01 "HgN/A
1:30 am59 °FClear.7 mph72%30.01 "Hg10 mi
1:00 am59 °FClear.7 mph72%30.04 "Hg10 mi
12:30 am59 °FClear.8 mph72%30.04 "Hg10 mi
12:00 am61 °FPassing clouds.7 mph72%30.04 "HgN/A
11:30 pm
Fri, May 24
61 °FClear.6 mph72%30.04 "Hg10 mi
11:00 pm63 °FClear.6 mph68%30.04 "Hg10 mi
10:30 pm63 °FClear.7 mph68%30.04 "Hg10 mi
10:00 pm66 °FClear.6 mph60%30.04 "Hg10 mi
Weather by CustomWeather, © 2024

See weather overview